sensor_id;sensor_type;location;lat;lon;timestamp;P1;durP1;ratioP1;P2;durP2;ratioP2
8252;SDS011;61313;48.396;10.008;2023-12-07T00:00:14;11.87;;;8.20;;
8252;SDS011;61313;48.396;10.008;2023-12-07T00:02:40;8.63;;;7.43;;
8252;SDS011;61313;48.396;10.008;2023-12-07T00:05:06;9.63;;;8.20;;
8252;SDS011;61313;48.396;10.008;2023-12-07T00:07:31;9.07;;;6.93;;
8252;SDS011;61313;48.396;10.008;2023-12-07T00:09:57;7.93;;;7.10;;
8252;SDS011;61313;48.396;10.008;2023-12-07T00:12:22;9.57;;;7.53;;
8252;SDS011;61313;48.396;10.008;2023-12-07T00:14:47;8.30;;;7.17;;
8252;SDS011;61313;48.396;10.008;2023-12-07T00:17:13;7.50;;;6.50;;
8252;SDS011;61313;48.396;10.008;2023-12-07T00:19:39;8.87;;;6.90;;
8252;SDS011;61313;48.396;10.008;2023-12-07T00:22:05;7.17;;;6.47;;
8252;SDS011;61313;48.396;10.008;2023-12-07T00:24:30;8.27;;;7.10;;
8252;SDS011;61313;48.396;10.008;2023-12-07T00:26:55;9.73;;;7.40;;
8252;SDS011;61313;48.396;10.008;2023-12-07T00:29:21;8.43;;;6.97;;
8252;SDS011;61313;48.396;10.008;2023-12-07T00:31:46;12.93;;;6.97;;
8252;SDS011;61313;48.396;10.008;2023-12-07T00:34:12;9.87;;;8.10;;
8252;SDS011;61313;48.396;10.008;2023-12-07T00:36:37;10.97;;;6.63;;
8252;SDS011;61313;48.396;10.008;2023-12-07T00:39:04;9.27;;;7.53;;
8252;SDS011;61313;48.396;10.008;2023-12-07T00:41:29;9.10;;;7.43;;
8252;SDS011;61313;48.396;10.008;2023-12-07T00:43:55;7.43;;;6.33;;
8252;SDS011;61313;48.396;10.008;2023-12-07T00:46:20;11.27;;;7.40;;
8252;SDS011;61313;48.396;10.008;2023-12-07T00:48:45;11.73;;;7.23;;
8252;SDS011;61313;48.396;10.008;2023-12-07T00:51:11;8.03;;;6.20;;
8252;SDS011;61313;48.396;10.008;2023-12-07T00:53:36;9.57;;;7.50;;
8252;SDS011;61313;48.396;10.008;2023-12-07T00:56:02;10.90;;;7.30;;
8252;SDS011;61313;48.396;10.008;2023-12-07T00:58:29;31.87;;;7.77;;
8252;SDS011;61313;48.396;10.008;2023-12-07T01:00:54;8.30;;;6.47;;
8252;SDS011;61313;48.396;10.008;2023-12-07T01:03:20;7.83;;;5.93;;
8252;SDS011;61313;48.396;10.008;2023-12-07T01:05:45;9.50;;;7.13;;
8252;SDS011;61313;48.396;10.008;2023-12-07T01:08:11;7.87;;;6.53;;
8252;SDS011;61313;48.396;10.008;2023-12-07T01:10:36;8.70;;;7.20;;
8252;SDS011;61313;48.396;10.008;2023-12-07T01:13:02;7.83;;;6.63;;
8252;SDS011;61313;48.396;10.008;2023-12-07T01:15:27;9.30;;;6.93;;
8252;SDS011;61313;48.396;10.008;2023-12-07T01:17:52;7.70;;;6.87;;
8252;SDS011;61313;48.396;10.008;2023-12-07T01:20:18;9.60;;;7.67;;
8252;SDS011;61313;48.396;10.008;2023-12-07T01:22:43;9.20;;;7.20;;
8252;SDS011;61313;48.396;10.008;2023-12-07T01:25:10;11.23;;;7.00;;
8252;SDS011;61313;48.396;10.008;2023-12-07T01:27:36;9.20;;;6.77;;
8252;SDS011;61313;48.396;10.008;2023-12-07T01:30:01;9.40;;;7.40;;
8252;SDS011;61313;48.396;10.008;2023-12-07T01:32:28;9.10;;;6.47;;
8252;SDS011;61313;48.396;10.008;2023-12-07T01:34:54;8.77;;;7.60;;
8252;SDS011;61313;48.396;10.008;2023-12-07T01:37:19;8.10;;;7.10;;
8252;SDS011;61313;48.396;10.008;2023-12-07T01:39:45;7.23;;;6.40;;
8252;SDS011;61313;48.396;10.008;2023-12-07T01:42:10;7.50;;;6.70;;
8252;SDS011;61313;48.396;10.008;2023-12-07T01:44:37;8.07;;;6.57;;
8252;SDS011;61313;48.396;10.008;2023-12-07T01:47:03;15.93;;;6.43;;
8252;SDS011;61313;48.396;10.008;2023-12-07T01:49:29;8.80;;;7.10;;
8252;SDS011;61313;48.396;10.008;2023-12-07T01:51:56;9.93;;;7.10;;
8252;SDS011;61313;48.396;10.008;2023-12-07T01:54:22;9.93;;;6.10;;
8252;SDS011;61313;48.396;10.008;2023-12-07T01:56:47;7.00;;;6.23;;
8252;SDS011;61313;48.396;10.008;2023-12-07T01:59:13;11.43;;;6.97;;
8252;SDS011;61313;48.396;10.008;2023-12-07T02:01:39;9.40;;;8.10;;
8252;SDS011;61313;48.396;10.008;2023-12-07T02:04:05;11.07;;;7.00;;
8252;SDS011;61313;48.396;10.008;2023-12-07T02:06:30;9.17;;;6.90;;
8252;SDS011;61313;48.396;10.008;2023-12-07T02:08:55;9.00;;;7.57;;
8252;SDS011;61313;48.396;10.008;2023-12-07T02:11:21;11.93;;;7.43;;
8252;SDS011;61313;48.396;10.008;2023-12-07T02:13:47;8.20;;;6.73;;
8252;SDS011;61313;48.396;10.008;2023-12-07T02:16:24;8.87;;;7.13;;
8252;SDS011;61313;48.396;10.008;2023-12-07T02:21:50;9.47;;;7.20;;
8252;SDS011;61313;48.396;10.008;2023-12-07T02:24:21;9.90;;;7.13;;
8252;SDS011;61313;48.396;10.008;2023-12-07T02:26:47;9.03;;;8.00;;
8252;SDS011;61313;48.396;10.008;2023-12-07T02:29:13;11.10;;;7.70;;
8252;SDS011;61313;48.396;10.008;2023-12-07T02:31:39;8.67;;;7.20;;
8252;SDS011;61313;48.396;10.008;2023-12-07T02:34:05;9.27;;;7.90;;
8252;SDS011;61313;48.396;10.008;2023-12-07T02:36:30;11.27;;;8.00;;
8252;SDS011;61313;48.396;10.008;2023-12-07T02:38:59;14.50;;;8.60;;
8252;SDS011;61313;48.396;10.008;2023-12-07T02:41:28;9.57;;;7.27;;
8252;SDS011;61313;48.396;10.008;2023-12-07T02:43:57;10.77;;;8.60;;
8252;SDS011;61313;48.396;10.008;2023-12-07T02:46:23;10.87;;;8.47;;
8252;SDS011;61313;48.396;10.008;2023-12-07T02:48:50;9.80;;;8.17;;
8252;SDS011;61313;48.396;10.008;2023-12-07T02:51:15;10.23;;;8.50;;
8252;SDS011;61313;48.396;10.008;2023-12-07T02:53:40;10.47;;;9.23;;
8252;SDS011;61313;48.396;10.008;2023-12-07T02:56:06;12.17;;;9.27;;
8252;SDS011;61313;48.396;10.008;2023-12-07T02:58:32;11.73;;;8.60;;
8252;SDS011;61313;48.396;10.008;2023-12-07T03:00:57;11.20;;;9.10;;
8252;SDS011;61313;48.396;10.008;2023-12-07T03:03:22;10.30;;;8.43;;
8252;SDS011;61313;48.396;10.008;2023-12-07T03:05:48;10.17;;;9.13;;
8252;SDS011;61313;48.396;10.008;2023-12-07T03:08:13;10.80;;;9.10;;
8252;SDS011;61313;48.396;10.008;2023-12-07T03:10:38;12.47;;;9.30;;
8252;SDS011;61313;48.396;10.008;2023-12-07T03:13:04;11.40;;;9.10;;
8252;SDS011;61313;48.396;10.008;2023-12-07T03:15:29;11.57;;;8.67;;
8252;SDS011;61313;48.396;10.008;2023-12-07T03:17:54;11.97;;;9.20;;
8252;SDS011;61313;48.396;10.008;2023-12-07T03:20:20;12.23;;;9.10;;
8252;SDS011;61313;48.396;10.008;2023-12-07T03:22:46;9.60;;;8.60;;
8252;SDS011;61313;48.396;10.008;2023-12-07T03:25:11;14.27;;;10.53;;
8252;SDS011;61313;48.396;10.008;2023-12-07T03:27:37;16.87;;;10.23;;
8252;SDS011;61313;48.396;10.008;2023-12-07T03:30:02;16.10;;;9.80;;
8252;SDS011;61313;48.396;10.008;2023-12-07T03:32:28;13.37;;;9.77;;
8252;SDS011;61313;48.396;10.008;2023-12-07T03:34:53;14.30;;;9.47;;
8252;SDS011;61313;48.396;10.008;2023-12-07T03:37:18;13.50;;;10.07;;
8252;SDS011;61313;48.396;10.008;2023-12-07T03:39:44;16.90;;;10.00;;
8252;SDS011;61313;48.396;10.008;2023-12-07T03:42:09;13.33;;;9.17;;
8252;SDS011;61313;48.396;10.008;2023-12-07T03:44:35;12.13;;;8.90;;
8252;SDS011;61313;48.396;10.008;2023-12-07T03:47:00;17.80;;;10.10;;
8252;SDS011;61313;48.396;10.008;2023-12-07T03:49:26;12.83;;;8.63;;
8252;SDS011;61313;48.396;10.008;2023-12-07T03:51:51;9.10;;;8.10;;
8252;SDS011;61313;48.396;10.008;2023-12-07T03:54:16;11.37;;;9.40;;
8252;SDS011;61313;48.396;10.008;2023-12-07T03:56:42;10.50;;;9.00;;
8252;SDS011;61313;48.396;10.008;2023-12-07T03:59:07;12.60;;;9.70;;
8252;SDS011;61313;48.396;10.008;2023-12-07T04:01:33;12.70;;;9.17;;
8252;SDS011;61313;48.396;10.008;2023-12-07T04:03:58;9.10;;;7.93;;
8252;SDS011;61313;48.396;10.008;2023-12-07T04:06:24;9.60;;;8.47;;
8252;SDS011;61313;48.396;10.008;2023-12-07T04:08:50;11.50;;;8.33;;
8252;SDS011;61313;48.396;10.008;2023-12-07T04:11:15;12.73;;;10.33;;
8252;SDS011;61313;48.396;10.008;2023-12-07T04:13:42;9.40;;;8.03;;
8252;SDS011;61313;48.396;10.008;2023-12-07T04:16:08;10.13;;;9.10;;
8252;SDS011;61313;48.396;10.008;2023-12-07T04:18:35;12.10;;;9.37;;
8252;SDS011;61313;48.396;10.008;2023-12-07T04:21:00;10.97;;;9.03;;
8252;SDS011;61313;48.396;10.008;2023-12-07T04:23:26;14.77;;;10.07;;
8252;SDS011;61313;48.396;10.008;2023-12-07T04:25:51;14.63;;;10.00;;
8252;SDS011;61313;48.396;10.008;2023-12-07T04:28:17;16.30;;;11.30;;
8252;SDS011;61313;48.396;10.008;2023-12-07T04:30:42;12.33;;;10.10;;
8252;SDS011;61313;48.396;10.008;2023-12-07T04:33:07;12.63;;;9.57;;
8252;SDS011;61313;48.396;10.008;2023-12-07T04:35:33;11.10;;;9.30;;
8252;SDS011;61313;48.396;10.008;2023-12-07T04:37:59;12.07;;;9.50;;
8252;SDS011;61313;48.396;10.008;2023-12-07T04:40:25;12.10;;;10.17;;
8252;SDS011;61313;48.396;10.008;2023-12-07T04:42:50;12.83;;;9.53;;
8252;SDS011;61313;48.396;10.008;2023-12-07T04:45:16;14.97;;;10.03;;
8252;SDS011;61313;48.396;10.008;2023-12-07T04:47:41;12.33;;;9.97;;
8252;SDS011;61313;48.396;10.008;2023-12-07T04:50:07;12.57;;;9.63;;
8252;SDS011;61313;48.396;10.008;2023-12-07T04:52:33;11.00;;;8.80;;
8252;SDS011;61313;48.396;10.008;2023-12-07T04:54:59;11.40;;;9.73;;
8252;SDS011;61313;48.396;10.008;2023-12-07T04:57:24;13.83;;;10.43;;
8252;SDS011;61313;48.396;10.008;2023-12-07T04:59:49;16.10;;;10.20;;
8252;SDS011;61313;48.396;10.008;2023-12-07T05:02:17;12.90;;;9.60;;
8252;SDS011;61313;48.396;10.008;2023-12-07T05:04:43;13.00;;;9.70;;
8252;SDS011;61313;48.396;10.008;2023-12-07T05:07:10;13.80;;;10.53;;
8252;SDS011;61313;48.396;10.008;2023-12-07T05:09:36;12.07;;;9.87;;
8252;SDS011;61313;48.396;10.008;2023-12-07T05:12:03;11.90;;;9.47;;
8252;SDS011;61313;48.396;10.008;2023-12-07T05:14:30;15.43;;;9.30;;
8252;SDS011;61313;48.396;10.008;2023-12-07T05:16:59;18.70;;;11.80;;
8252;SDS011;61313;48.396;10.008;2023-12-07T05:19:25;22.83;;;12.13;;
8252;SDS011;61313;48.396;10.008;2023-12-07T05:21:51;14.40;;;11.77;;
8252;SDS011;61313;48.396;10.008;2023-12-07T05:24:16;12.20;;;10.20;;
8252;SDS011;61313;48.396;10.008;2023-12-07T05:26:42;11.60;;;9.60;;
8252;SDS011;61313;48.396;10.008;2023-12-07T05:29:08;12.60;;;9.83;;
8252;SDS011;61313;48.396;10.008;2023-12-07T05:31:35;14.80;;;10.90;;
8252;SDS011;61313;48.396;10.008;2023-12-07T05:34:00;14.17;;;10.30;;
8252;SDS011;61313;48.396;10.008;2023-12-07T05:36:26;13.23;;;10.03;;
8252;SDS011;61313;48.396;10.008;2023-12-07T05:38:51;11.80;;;9.50;;
8252;SDS011;61313;48.396;10.008;2023-12-07T05:41:17;12.30;;;9.83;;
8252;SDS011;61313;48.396;10.008;2023-12-07T05:43:42;14.33;;;11.20;;
8252;SDS011;61313;48.396;10.008;2023-12-07T05:46:08;15.20;;;12.00;;
8252;SDS011;61313;48.396;10.008;2023-12-07T05:48:33;13.00;;;11.57;;
8252;SDS011;61313;48.396;10.008;2023-12-07T05:50:59;15.73;;;11.37;;
8252;SDS011;61313;48.396;10.008;2023-12-07T05:53:26;14.37;;;10.87;;
8252;SDS011;61313;48.396;10.008;2023-12-07T05:55:52;13.50;;;11.23;;
8252;SDS011;61313;48.396;10.008;2023-12-07T05:58:17;15.33;;;12.10;;
8252;SDS011;61313;48.396;10.008;2023-12-07T06:00:43;12.63;;;11.13;;
8252;SDS011;61313;48.396;10.008;2023-12-07T06:03:08;10.53;;;9.43;;
8252;SDS011;61313;48.396;10.008;2023-12-07T06:05:36;13.10;;;10.47;;
8252;SDS011;61313;48.396;10.008;2023-12-07T06:08:02;12.43;;;9.50;;
8252;SDS011;61313;48.396;10.008;2023-12-07T06:10:29;16.27;;;11.33;;
8252;SDS011;61313;48.396;10.008;2023-12-07T06:12:55;14.67;;;10.60;;
8252;SDS011;61313;48.396;10.008;2023-12-07T06:15:22;13.90;;;10.57;;
8252;SDS011;61313;48.396;10.008;2023-12-07T06:17:48;15.43;;;11.50;;
8252;SDS011;61313;48.396;10.008;2023-12-07T06:20:14;19.20;;;11.73;;
8252;SDS011;61313;48.396;10.008;2023-12-07T06:22:39;17.20;;;11.77;;
8252;SDS011;61313;48.396;10.008;2023-12-07T06:25:05;14.30;;;11.80;;
8252;SDS011;61313;48.396;10.008;2023-12-07T06:27:31;17.07;;;12.60;;
8252;SDS011;61313;48.396;10.008;2023-12-07T06:29:58;12.60;;;10.57;;
8252;SDS011;61313;48.396;10.008;2023-12-07T06:32:24;17.33;;;12.60;;
8252;SDS011;61313;48.396;10.008;2023-12-07T06:34:50;16.13;;;11.60;;
8252;SDS011;61313;48.396;10.008;2023-12-07T06:37:15;20.80;;;10.17;;
8252;SDS011;61313;48.396;10.008;2023-12-07T06:39:42;21.70;;;12.07;;
8252;SDS011;61313;48.396;10.008;2023-12-07T06:42:08;22.37;;;11.20;;
8252;SDS011;61313;48.396;10.008;2023-12-07T06:44:33;17.70;;;11.97;;
8252;SDS011;61313;48.396;10.008;2023-12-07T06:46:59;19.80;;;12.80;;
8252;SDS011;61313;48.396;10.008;2023-12-07T06:49:28;14.23;;;11.77;;
8252;SDS011;61313;48.396;10.008;2023-12-07T06:51:53;22.53;;;14.00;;
8252;SDS011;61313;48.396;10.008;2023-12-07T06:54:19;15.47;;;11.97;;
8252;SDS011;61313;48.396;10.008;2023-12-07T06:56:44;18.93;;;13.20;;
8252;SDS011;61313;48.396;10.008;2023-12-07T06:59:11;21.50;;;15.83;;
8252;SDS011;61313;48.396;10.008;2023-12-07T07:01:37;23.83;;;13.20;;
8252;SDS011;61313;48.396;10.008;2023-12-07T07:04:03;20.80;;;13.63;;
8252;SDS011;61313;48.396;10.008;2023-12-07T07:06:29;19.30;;;13.80;;
8252;SDS011;61313;48.396;10.008;2023-12-07T07:08:54;21.97;;;13.00;;
8252;SDS011;61313;48.396;10.008;2023-12-07T07:11:20;17.00;;;12.23;;
8252;SDS011;61313;48.396;10.008;2023-12-07T07:13:45;16.37;;;11.40;;
8252;SDS011;61313;48.396;10.008;2023-12-07T07:16:11;18.97;;;12.30;;
8252;SDS011;61313;48.396;10.008;2023-12-07T07:18:39;19.50;;;12.67;;
8252;SDS011;61313;48.396;10.008;2023-12-07T07:21:05;19.73;;;12.23;;
8252;SDS011;61313;48.396;10.008;2023-12-07T07:23:34;15.87;;;12.00;;
8252;SDS011;61313;48.396;10.008;2023-12-07T07:26:00;11.43;;;9.87;;
8252;SDS011;61313;48.396;10.008;2023-12-07T07:28:26;14.77;;;10.40;;
8252;SDS011;61313;48.396;10.008;2023-12-07T07:30:51;13.63;;;10.57;;
8252;SDS011;61313;48.396;10.008;2023-12-07T07:33:18;16.57;;;12.17;;
8252;SDS011;61313;48.396;10.008;2023-12-07T07:35:44;40.40;;;12.00;;
8252;SDS011;61313;48.396;10.008;2023-12-07T07:38:12;32.77;;;13.50;;
8252;SDS011;61313;48.396;10.008;2023-12-07T07:40:39;23.17;;;11.33;;
8252;SDS011;61313;48.396;10.008;2023-12-07T07:43:05;19.83;;;11.70;;
8252;SDS011;61313;48.396;10.008;2023-12-07T07:45:30;14.13;;;10.53;;
8252;SDS011;61313;48.396;10.008;2023-12-07T07:47:56;16.60;;;11.50;;
8252;SDS011;61313;48.396;10.008;2023-12-07T07:50:21;16.67;;;12.37;;
8252;SDS011;61313;48.396;10.008;2023-12-07T07:52:47;25.10;;;11.97;;
8252;SDS011;61313;48.396;10.008;2023-12-07T07:55:13;18.53;;;12.23;;
8252;SDS011;61313;48.396;10.008;2023-12-07T07:57:38;21.37;;;11.97;;
8252;SDS011;61313;48.396;10.008;2023-12-07T08:00:04;49.03;;;14.53;;
8252;SDS011;61313;48.396;10.008;2023-12-07T08:02:30;38.17;;;15.77;;
8252;SDS011;61313;48.396;10.008;2023-12-07T08:04:56;39.07;;;14.83;;
8252;SDS011;61313;48.396;10.008;2023-12-07T08:07:22;25.63;;;12.60;;
8252;SDS011;61313;48.396;10.008;2023-12-07T08:09:47;24.20;;;12.93;;
8252;SDS011;61313;48.396;10.008;2023-12-07T08:12:13;23.93;;;13.23;;
8252;SDS011;61313;48.396;10.008;2023-12-07T08:14:39;22.00;;;13.20;;
8252;SDS011;61313;48.396;10.008;2023-12-07T08:17:05;22.77;;;14.07;;
8252;SDS011;61313;48.396;10.008;2023-12-07T08:19:33;18.47;;;12.13;;
8252;SDS011;61313;48.396;10.008;2023-12-07T08:21:59;17.40;;;12.17;;
8252;SDS011;61313;48.396;10.008;2023-12-07T08:24:24;21.83;;;13.73;;
8252;SDS011;61313;48.396;10.008;2023-12-07T08:26:50;18.83;;;12.83;;
8252;SDS011;61313;48.396;10.008;2023-12-07T08:29:16;18.17;;;11.23;;
8252;SDS011;61313;48.396;10.008;2023-12-07T08:31:44;22.20;;;13.67;;
8252;SDS011;61313;48.396;10.008;2023-12-07T08:34:09;18.97;;;14.23;;
8252;SDS011;61313;48.396;10.008;2023-12-07T08:36:35;19.20;;;13.27;;
8252;SDS011;61313;48.396;10.008;2023-12-07T08:39:01;14.93;;;11.57;;
8252;SDS011;61313;48.396;10.008;2023-12-07T08:41:26;17.27;;;11.47;;
8252;SDS011;61313;48.396;10.008;2023-12-07T08:43:52;16.40;;;11.80;;
8252;SDS011;61313;48.396;10.008;2023-12-07T08:46:18;15.10;;;11.50;;
8252;SDS011;61313;48.396;10.008;2023-12-07T08:48:44;15.50;;;11.63;;
8252;SDS011;61313;48.396;10.008;2023-12-07T08:51:10;16.47;;;12.03;;
8252;SDS011;61313;48.396;10.008;2023-12-07T08:53:35;16.70;;;12.97;;
8252;SDS011;61313;48.396;10.008;2023-12-07T08:56:01;17.20;;;12.17;;
8252;SDS011;61313;48.396;10.008;2023-12-07T08:58:27;16.50;;;13.47;;
8252;SDS011;61313;48.396;10.008;2023-12-07T09:00:52;19.80;;;11.80;;
8252;SDS011;61313;48.396;10.008;2023-12-07T09:03:18;14.90;;;10.93;;
8252;SDS011;61313;48.396;10.008;2023-12-07T09:05:44;17.97;;;12.73;;
8252;SDS011;61313;48.396;10.008;2023-12-07T09:08:09;14.80;;;10.83;;
8252;SDS011;61313;48.396;10.008;2023-12-07T09:10:35;12.93;;;10.53;;
8252;SDS011;61313;48.396;10.008;2023-12-07T09:13:00;13.80;;;11.47;;
8252;SDS011;61313;48.396;10.008;2023-12-07T09:15:26;14.23;;;10.00;;
8252;SDS011;61313;48.396;10.008;2023-12-07T09:17:52;13.83;;;10.03;;
8252;SDS011;61313;48.396;10.008;2023-12-07T09:20:17;13.47;;;9.93;;
8252;SDS011;61313;48.396;10.008;2023-12-07T09:22:46;13.57;;;9.87;;
8252;SDS011;61313;48.396;10.008;2023-12-07T09:25:13;12.03;;;10.00;;
8252;SDS011;61313;48.396;10.008;2023-12-07T09:27:40;12.50;;;10.13;;
8252;SDS011;61313;48.396;10.008;2023-12-07T09:30:06;11.20;;;9.40;;
8252;SDS011;61313;48.396;10.008;2023-12-07T09:32:35;40.00;;;11.37;;
8252;SDS011;61313;48.396;10.008;2023-12-07T09:35:10;16.17;;;8.73;;
8252;SDS011;61313;48.396;10.008;2023-12-07T09:37:45;12.10;;;8.47;;
8252;SDS011;61313;48.396;10.008;2023-12-07T09:40:14;12.50;;;8.43;;
8252;SDS011;61313;48.396;10.008;2023-12-07T09:42:42;10.83;;;8.40;;
8252;SDS011;61313;48.396;10.008;2023-12-07T09:45:08;13.97;;;8.30;;
8252;SDS011;61313;48.396;10.008;2023-12-07T09:47:33;19.17;;;10.10;;
8252;SDS011;61313;48.396;10.008;2023-12-07T09:49:59;59.23;;;15.20;;
8252;SDS011;61313;48.396;10.008;2023-12-07T09:52:26;65.80;;;14.47;;
8252;SDS011;61313;48.396;10.008;2023-12-07T09:54:52;60.30;;;14.30;;
8252;SDS011;61313;48.396;10.008;2023-12-07T09:57:20;13.07;;;10.17;;
8252;SDS011;61313;48.396;10.008;2023-12-07T09:59:46;9.90;;;8.70;;
8252;SDS011;61313;48.396;10.008;2023-12-07T10:02:13;17.00;;;9.70;;
8252;SDS011;61313;48.396;10.008;2023-12-07T10:04:38;30.53;;;13.73;;
8252;SDS011;61313;48.396;10.008;2023-12-07T10:07:04;45.03;;;15.90;;
8252;SDS011;61313;48.396;10.008;2023-12-07T10:09:33;40.43;;;19.20;;
8252;SDS011;61313;48.396;10.008;2023-12-07T10:12:03;23.33;;;14.53;;
8252;SDS011;61313;48.396;10.008;2023-12-07T10:14:29;22.87;;;13.93;;
8252;SDS011;61313;48.396;10.008;2023-12-07T10:16:55;20.37;;;14.50;;
8252;SDS011;61313;48.396;10.008;2023-12-07T10:19:21;30.10;;;17.53;;
8252;SDS011;61313;48.396;10.008;2023-12-07T10:21:48;20.40;;;14.13;;
8252;SDS011;61313;48.396;10.008;2023-12-07T10:24:18;14.40;;;12.57;;
8252;SDS011;61313;48.396;10.008;2023-12-07T10:26:45;22.37;;;12.57;;
8252;SDS011;61313;48.396;10.008;2023-12-07T10:29:11;22.20;;;14.70;;
8252;SDS011;61313;48.396;10.008;2023-12-07T10:31:37;20.20;;;15.63;;
8252;SDS011;61313;48.396;10.008;2023-12-07T10:34:02;20.50;;;16.50;;
8252;SDS011;61313;48.396;10.008;2023-12-07T10:36:29;17.27;;;13.30;;
8252;SDS011;61313;48.396;10.008;2023-12-07T10:38:55;12.80;;;10.93;;
8252;SDS011;61313;48.396;10.008;2023-12-07T10:41:23;12.93;;;11.03;;
8252;SDS011;61313;48.396;10.008;2023-12-07T10:43:51;11.97;;;9.83;;
8252;SDS011;61313;48.396;10.008;2023-12-07T10:46:19;19.17;;;15.37;;
8252;SDS011;61313;48.396;10.008;2023-12-07T10:48:46;20.03;;;16.50;;
8252;SDS011;61313;48.396;10.008;2023-12-07T10:51:14;22.40;;;16.23;;
8252;SDS011;61313;48.396;10.008;2023-12-07T10:53:51;23.97;;;15.40;;
8252;SDS011;61313;48.396;10.008;2023-12-07T10:56:26;21.87;;;15.47;;
8252;SDS011;61313;48.396;10.008;2023-12-07T10:58:57;17.83;;;14.30;;
8252;SDS011;61313;48.396;10.008;2023-12-07T11:01:24;19.07;;;15.27;;
8252;SDS011;61313;48.396;10.008;2023-12-07T11:03:50;19.80;;;16.27;;
8252;SDS011;61313;48.396;10.008;2023-12-07T11:06:18;20.17;;;15.10;;
8252;SDS011;61313;48.396;10.008;2023-12-07T11:08:44;21.73;;;15.93;;
8252;SDS011;61313;48.396;10.008;2023-12-07T11:16:43;20.87;;;14.03;;
8252;SDS011;61313;48.396;10.008;2023-12-07T11:21:57;17.53;;;12.57;;
8252;SDS011;61313;48.396;10.008;2023-12-07T11:24:23;16.87;;;13.20;;
8252;SDS011;61313;48.396;10.008;2023-12-07T11:26:51;15.97;;;12.13;;
8252;SDS011;61313;48.396;10.008;2023-12-07T11:29:19;12.10;;;9.30;;
8252;SDS011;61313;48.396;10.008;2023-12-07T11:32:12;10.80;;;8.50;;
8252;SDS011;61313;48.396;10.008;2023-12-07T11:34:38;15.93;;;11.57;;
8252;SDS011;61313;48.396;10.008;2023-12-07T11:37:14;19.93;;;11.20;;
8252;SDS011;61313;48.396;10.008;2023-12-07T11:39:42;14.97;;;11.00;;
8252;SDS011;61313;48.396;10.008;2023-12-07T11:42:15;14.30;;;10.70;;
8252;SDS011;61313;48.396;10.008;2023-12-07T11:44:43;12.00;;;9.83;;
8252;SDS011;61313;48.396;10.008;2023-12-07T11:47:15;24.33;;;12.10;;
8252;SDS011;61313;48.396;10.008;2023-12-07T11:49:42;36.80;;;12.63;;
8252;SDS011;61313;48.396;10.008;2023-12-07T11:52:15;20.30;;;10.53;;
8252;SDS011;61313;48.396;10.008;2023-12-07T11:54:48;12.83;;;10.87;;
8252;SDS011;61313;48.396;10.008;2023-12-07T11:57:15;18.30;;;11.33;;
8252;SDS011;61313;48.396;10.008;2023-12-07T11:59:45;13.17;;;9.83;;
8252;SDS011;61313;48.396;10.008;2023-12-07T12:02:13;13.40;;;9.87;;
8252;SDS011;61313;48.396;10.008;2023-12-07T12:04:42;13.10;;;9.27;;
8252;SDS011;61313;48.396;10.008;2023-12-07T12:07:07;15.67;;;9.80;;
8252;SDS011;61313;48.396;10.008;2023-12-07T12:09:33;10.70;;;9.17;;
8252;SDS011;61313;48.396;10.008;2023-12-07T12:11:59;11.20;;;9.60;;
8252;SDS011;61313;48.396;10.008;2023-12-07T12:14:25;10.67;;;9.53;;
8252;SDS011;61313;48.396;10.008;2023-12-07T12:16:51;20.80;;;10.87;;
8252;SDS011;61313;48.396;10.008;2023-12-07T12:19:16;26.13;;;11.60;;
8252;SDS011;61313;48.396;10.008;2023-12-07T12:21:42;24.40;;;11.70;;
8252;SDS011;61313;48.396;10.008;2023-12-07T12:24:12;15.57;;;10.87;;
8252;SDS011;61313;48.396;10.008;2023-12-07T12:26:41;15.43;;;12.43;;
8252;SDS011;61313;48.396;10.008;2023-12-07T12:29:07;20.80;;;14.73;;
8252;SDS011;61313;48.396;10.008;2023-12-07T12:31:34;16.83;;;13.27;;
8252;SDS011;61313;48.396;10.008;2023-12-07T12:34:00;16.70;;;13.50;;
8252;SDS011;61313;48.396;10.008;2023-12-07T12:36:27;20.40;;;13.57;;
8252;SDS011;61313;48.396;10.008;2023-12-07T12:38:53;16.60;;;11.77;;
8252;SDS011;61313;48.396;10.008;2023-12-07T12:41:19;15.30;;;11.30;;
8252;SDS011;61313;48.396;10.008;2023-12-07T12:43:45;22.90;;;14.13;;
8252;SDS011;61313;48.396;10.008;2023-12-07T12:46:11;15.50;;;11.43;;
8252;SDS011;61313;48.396;10.008;2023-12-07T12:48:37;12.70;;;11.40;;
8252;SDS011;61313;48.396;10.008;2023-12-07T12:51:12;11.60;;;9.50;;
8252;SDS011;61313;48.396;10.008;2023-12-07T12:53:44;15.63;;;12.13;;
8252;SDS011;61313;48.396;10.008;2023-12-07T12:56:10;16.27;;;12.00;;
8252;SDS011;61313;48.396;10.008;2023-12-07T12:58:36;17.37;;;11.13;;
8252;SDS011;61313;48.396;10.008;2023-12-07T13:01:01;17.30;;;11.40;;
8252;SDS011;61313;48.396;10.008;2023-12-07T13:03:28;12.30;;;10.17;;
8252;SDS011;61313;48.396;10.008;2023-12-07T13:05:54;12.70;;;8.63;;
8252;SDS011;61313;48.396;10.008;2023-12-07T13:08:19;11.73;;;9.80;;
8252;SDS011;61313;48.396;10.008;2023-12-07T13:10:44;10.50;;;9.40;;
8252;SDS011;61313;48.396;10.008;2023-12-07T13:13:10;17.27;;;11.03;;
8252;SDS011;61313;48.396;10.008;2023-12-07T13:15:35;10.80;;;9.57;;
8252;SDS011;61313;48.396;10.008;2023-12-07T13:18:01;18.70;;;12.97;;
8252;SDS011;61313;48.396;10.008;2023-12-07T13:20:26;12.00;;;9.37;;
8252;SDS011;61313;48.396;10.008;2023-12-07T13:22:52;17.00;;;11.00;;
8252;SDS011;61313;48.396;10.008;2023-12-07T13:25:17;12.93;;;10.60;;
8252;SDS011;61313;48.396;10.008;2023-12-07T13:27:42;12.23;;;9.63;;
8252;SDS011;61313;48.396;10.008;2023-12-07T13:30:08;10.20;;;8.43;;
8252;SDS011;61313;48.396;10.008;2023-12-07T13:32:34;12.77;;;9.87;;
8252;SDS011;61313;48.396;10.008;2023-12-07T13:35:02;10.97;;;8.53;;
8252;SDS011;61313;48.396;10.008;2023-12-07T13:37:28;11.20;;;9.10;;
8252;SDS011;61313;48.396;10.008;2023-12-07T13:39:53;21.57;;;12.57;;
8252;SDS011;61313;48.396;10.008;2023-12-07T13:42:23;13.13;;;10.60;;
8252;SDS011;61313;48.396;10.008;2023-12-07T13:44:52;19.23;;;11.97;;
8252;SDS011;61313;48.396;10.008;2023-12-07T13:47:18;57.13;;;18.40;;
8252;SDS011;61313;48.396;10.008;2023-12-07T13:49:45;19.17;;;14.67;;
8252;SDS011;61313;48.396;10.008;2023-12-07T13:52:10;14.10;;;11.30;;
8252;SDS011;61313;48.396;10.008;2023-12-07T13:54:36;14.87;;;11.67;;
8252;SDS011;61313;48.396;10.008;2023-12-07T13:57:01;16.67;;;11.20;;
8252;SDS011;61313;48.396;10.008;2023-12-07T13:59:28;14.87;;;12.13;;
8252;SDS011;61313;48.396;10.008;2023-12-07T14:01:54;18.33;;;13.77;;
8252;SDS011;61313;48.396;10.008;2023-12-07T14:04:20;10.63;;;8.90;;
8252;SDS011;61313;48.396;10.008;2023-12-07T14:06:46;11.33;;;9.90;;
8252;SDS011;61313;48.396;10.008;2023-12-07T14:09:11;12.20;;;9.70;;
8252;SDS011;61313;48.396;10.008;2023-12-07T14:11:37;14.20;;;9.67;;
8252;SDS011;61313;48.396;10.008;2023-12-07T14:14:02;11.60;;;8.37;;
8252;SDS011;61313;48.396;10.008;2023-12-07T14:16:28;10.90;;;8.70;;
8252;SDS011;61313;48.396;10.008;2023-12-07T14:18:54;12.37;;;8.70;;
8252;SDS011;61313;48.396;10.008;2023-12-07T14:21:19;14.90;;;10.70;;
8252;SDS011;61313;48.396;10.008;2023-12-07T14:23:46;13.00;;;9.53;;
8252;SDS011;61313;48.396;10.008;2023-12-07T14:26:11;10.50;;;9.27;;
8252;SDS011;61313;48.396;10.008;2023-12-07T14:28:36;10.20;;;8.50;;
8252;SDS011;61313;48.396;10.008;2023-12-07T14:31:02;16.57;;;8.90;;
8252;SDS011;61313;48.396;10.008;2023-12-07T14:33:29;11.47;;;8.20;;
8252;SDS011;61313;48.396;10.008;2023-12-07T14:35:54;16.60;;;8.60;;